sensor_id;sensor_type;location;lat;lon;timestamp;P1;durP1;ratioP1;P2;durP2;ratioP2
21665;SDS011;10994;45.486;9.190;2023-04-24T00:00:14;4.40;;;3.33;;
21665;SDS011;10994;45.486;9.190;2023-04-24T00:02:41;5.07;;;3.40;;
21665;SDS011;10994;45.486;9.190;2023-04-24T00:05:11;4.33;;;3.40;;
21665;SDS011;10994;45.486;9.190;2023-04-24T00:07:38;4.47;;;3.53;;
21665;SDS011;10994;45.486;9.190;2023-04-24T00:10:05;6.87;;;3.50;;
21665;SDS011;10994;45.486;9.190;2023-04-24T00:12:31;3.50;;;3.20;;
21665;SDS011;10994;45.486;9.190;2023-04-24T00:14:57;4.47;;;3.63;;
21665;SDS011;10994;45.486;9.190;2023-04-24T00:17:23;5.67;;;3.80;;
21665;SDS011;10994;45.486;9.190;2023-04-24T00:19:48;3.73;;;3.37;;
21665;SDS011;10994;45.486;9.190;2023-04-24T00:22:16;4.63;;;3.83;;
21665;SDS011;10994;45.486;9.190;2023-04-24T00:24:42;4.83;;;3.40;;
21665;SDS011;10994;45.486;9.190;2023-04-24T00:27:08;4.97;;;3.50;;
21665;SDS011;10994;45.486;9.190;2023-04-24T00:29:33;4.67;;;4.00;;
21665;SDS011;10994;45.486;9.190;2023-04-24T00:31:59;4.43;;;3.63;;
21665;SDS011;10994;45.486;9.190;2023-04-24T00:34:25;4.57;;;3.70;;
21665;SDS011;10994;45.486;9.190;2023-04-24T00:36:50;5.47;;;3.90;;
21665;SDS011;10994;45.486;9.190;2023-04-24T00:39:20;4.77;;;3.80;;
21665;SDS011;10994;45.486;9.190;2023-04-24T00:41:47;4.33;;;3.93;;
21665;SDS011;10994;45.486;9.190;2023-04-24T00:44:14;4.03;;;3.63;;
21665;SDS011;10994;45.486;9.190;2023-04-24T00:46:39;5.70;;;3.70;;
21665;SDS011;10994;45.486;9.190;2023-04-24T00:49:06;4.47;;;4.07;;
21665;SDS011;10994;45.486;9.190;2023-04-24T00:51:31;4.13;;;3.53;;
21665;SDS011;10994;45.486;9.190;2023-04-24T00:53:58;5.97;;;3.37;;
21665;SDS011;10994;45.486;9.190;2023-04-24T00:56:25;5.50;;;3.90;;
21665;SDS011;10994;45.486;9.190;2023-04-24T00:58:51;3.57;;;3.27;;
21665;SDS011;10994;45.486;9.190;2023-04-24T01:01:17;4.97;;;3.83;;
21665;SDS011;10994;45.486;9.190;2023-04-24T01:03:45;6.33;;;3.90;;
21665;SDS011;10994;45.486;9.190;2023-04-24T01:06:12;4.53;;;3.80;;
21665;SDS011;10994;45.486;9.190;2023-04-24T01:08:38;4.13;;;3.70;;
21665;SDS011;10994;45.486;9.190;2023-04-24T01:11:06;4.13;;;3.23;;
21665;SDS011;10994;45.486;9.190;2023-04-24T01:13:32;4.40;;;4.00;;
21665;SDS011;10994;45.486;9.190;2023-04-24T01:15:58;5.33;;;3.93;;
21665;SDS011;10994;45.486;9.190;2023-04-24T01:18:26;5.10;;;3.83;;
21665;SDS011;10994;45.486;9.190;2023-04-24T01:20:53;6.10;;;3.70;;
21665;SDS011;10994;45.486;9.190;2023-04-24T01:23:22;3.90;;;3.60;;
21665;SDS011;10994;45.486;9.190;2023-04-24T01:25:50;5.17;;;4.03;;
21665;SDS011;10994;45.486;9.190;2023-04-24T01:28:17;4.63;;;4.20;;
21665;SDS011;10994;45.486;9.190;2023-04-24T01:30:43;4.30;;;3.80;;
21665;SDS011;10994;45.486;9.190;2023-04-24T01:33:09;5.07;;;4.17;;
21665;SDS011;10994;45.486;9.190;2023-04-24T01:35:35;4.40;;;3.60;;
21665;SDS011;10994;45.486;9.190;2023-04-24T01:38:03;4.10;;;3.70;;
21665;SDS011;10994;45.486;9.190;2023-04-24T01:40:29;4.20;;;3.80;;
21665;SDS011;10994;45.486;9.190;2023-04-24T01:42:57;5.00;;;4.40;;
21665;SDS011;10994;45.486;9.190;2023-04-24T01:45:23;5.23;;;4.60;;
21665;SDS011;10994;45.486;9.190;2023-04-24T01:47:49;5.10;;;4.60;;
21665;SDS011;10994;45.486;9.190;2023-04-24T01:50:16;8.60;;;5.30;;
21665;SDS011;10994;45.486;9.190;2023-04-24T01:52:42;5.67;;;4.30;;
21665;SDS011;10994;45.486;9.190;2023-04-24T01:55:09;4.63;;;4.03;;
21665;SDS011;10994;45.486;9.190;2023-04-24T01:57:35;4.97;;;4.50;;
21665;SDS011;10994;45.486;9.190;2023-04-24T02:00:01;6.07;;;4.53;;
21665;SDS011;10994;45.486;9.190;2023-04-24T02:02:39;6.23;;;4.77;;
21665;SDS011;10994;45.486;9.190;2023-04-24T02:05:06;5.43;;;4.33;;
21665;SDS011;10994;45.486;9.190;2023-04-24T02:07:35;5.90;;;4.90;;
21665;SDS011;10994;45.486;9.190;2023-04-24T02:10:00;5.07;;;4.57;;
21665;SDS011;10994;45.486;9.190;2023-04-24T02:12:26;7.10;;;5.13;;
21665;SDS011;10994;45.486;9.190;2023-04-24T02:14:52;6.57;;;4.90;;
21665;SDS011;10994;45.486;9.190;2023-04-24T02:17:18;7.07;;;4.77;;
21665;SDS011;10994;45.486;9.190;2023-04-24T02:19:44;7.10;;;5.10;;
21665;SDS011;10994;45.486;9.190;2023-04-24T02:22:10;5.23;;;4.70;;
21665;SDS011;10994;45.486;9.190;2023-04-24T02:24:36;6.47;;;5.40;;
21665;SDS011;10994;45.486;9.190;2023-04-24T02:27:02;7.07;;;5.27;;
21665;SDS011;10994;45.486;9.190;2023-04-24T02:29:28;6.00;;;5.37;;
21665;SDS011;10994;45.486;9.190;2023-04-24T02:31:54;5.87;;;4.83;;
21665;SDS011;10994;45.486;9.190;2023-04-24T02:34:20;6.67;;;5.03;;
21665;SDS011;10994;45.486;9.190;2023-04-24T02:36:46;5.83;;;4.53;;
21665;SDS011;10994;45.486;9.190;2023-04-24T02:39:13;5.80;;;5.00;;
21665;SDS011;10994;45.486;9.190;2023-04-24T02:41:41;6.50;;;5.30;;
21665;SDS011;10994;45.486;9.190;2023-04-24T02:44:07;5.70;;;5.20;;
21665;SDS011;10994;45.486;9.190;2023-04-24T02:46:33;6.03;;;5.43;;
21665;SDS011;10994;45.486;9.190;2023-04-24T02:48:59;6.03;;;5.07;;
21665;SDS011;10994;45.486;9.190;2023-04-24T02:51:25;6.53;;;5.70;;
21665;SDS011;10994;45.486;9.190;2023-04-24T02:53:52;5.87;;;5.23;;
21665;SDS011;10994;45.486;9.190;2023-04-24T02:56:17;7.40;;;5.63;;
21665;SDS011;10994;45.486;9.190;2023-04-24T02:58:43;6.47;;;5.77;;
21665;SDS011;10994;45.486;9.190;2023-04-24T03:01:09;6.93;;;5.60;;
21665;SDS011;10994;45.486;9.190;2023-04-24T03:03:35;6.20;;;5.27;;
21665;SDS011;10994;45.486;9.190;2023-04-24T03:06:01;6.27;;;4.83;;
21665;SDS011;10994;45.486;9.190;2023-04-24T03:08:27;10.20;;;5.33;;
21665;SDS011;10994;45.486;9.190;2023-04-24T03:10:53;7.70;;;4.87;;
21665;SDS011;10994;45.486;9.190;2023-04-24T03:13:18;4.87;;;3.80;;
21665;SDS011;10994;45.486;9.190;2023-04-24T03:15:44;4.23;;;3.83;;
21665;SDS011;10994;45.486;9.190;2023-04-24T03:18:11;5.37;;;3.87;;
21665;SDS011;10994;45.486;9.190;2023-04-24T03:20:37;5.27;;;4.00;;
21665;SDS011;10994;45.486;9.190;2023-04-24T03:23:03;5.43;;;4.23;;
21665;SDS011;10994;45.486;9.190;2023-04-24T03:25:29;3.33;;;3.03;;
21665;SDS011;10994;45.486;9.190;2023-04-24T03:27:55;5.20;;;3.70;;
21665;SDS011;10994;45.486;9.190;2023-04-24T03:30:50;7.40;;;3.77;;
21665;SDS011;10994;45.486;9.190;2023-04-24T03:33:17;4.47;;;3.40;;
21665;SDS011;10994;45.486;9.190;2023-04-24T03:35:52;4.97;;;4.57;;
21665;SDS011;10994;45.486;9.190;2023-04-24T03:38:18;5.23;;;3.87;;
21665;SDS011;10994;45.486;9.190;2023-04-24T03:40:56;5.73;;;3.97;;
21665;SDS011;10994;45.486;9.190;2023-04-24T03:43:48;7.07;;;4.27;;
21665;SDS011;10994;45.486;9.190;2023-04-24T03:46:14;4.03;;;3.43;;
21665;SDS011;10994;45.486;9.190;2023-04-24T03:48:45;6.47;;;4.03;;
21665;SDS011;10994;45.486;9.190;2023-04-24T03:51:12;3.90;;;3.50;;
21665;SDS011;10994;45.486;9.190;2023-04-24T03:53:41;4.03;;;3.63;;
21665;SDS011;10994;45.486;9.190;2023-04-24T03:56:08;5.83;;;3.77;;
21665;SDS011;10994;45.486;9.190;2023-04-24T03:58:34;3.87;;;3.27;;
21665;SDS011;10994;45.486;9.190;2023-04-24T04:01:00;4.60;;;3.43;;
21665;SDS011;10994;45.486;9.190;2023-04-24T04:03:48;5.43;;;4.17;;
21665;SDS011;10994;45.486;9.190;2023-04-24T04:06:18;7.37;;;3.80;;
21665;SDS011;10994;45.486;9.190;2023-04-24T04:08:45;4.43;;;3.60;;
21665;SDS011;10994;45.486;9.190;2023-04-24T04:11:10;4.40;;;3.90;;
21665;SDS011;10994;45.486;9.190;2023-04-24T04:13:36;3.77;;;3.33;;
21665;SDS011;10994;45.486;9.190;2023-04-24T04:16:02;3.67;;;3.23;;
21665;SDS011;10994;45.486;9.190;2023-04-24T04:18:28;3.57;;;3.27;;
21665;SDS011;10994;45.486;9.190;2023-04-24T04:20:54;5.70;;;3.80;;
21665;SDS011;10994;45.486;9.190;2023-04-24T04:23:19;4.10;;;3.43;;
21665;SDS011;10994;45.486;9.190;2023-04-24T04:26:00;3.83;;;3.20;;
21665;SDS011;10994;45.486;9.190;2023-04-24T04:28:37;4.07;;;3.17;;
21665;SDS011;10994;45.486;9.190;2023-04-24T04:31:04;4.53;;;2.90;;
21665;SDS011;10994;45.486;9.190;2023-04-24T04:33:30;3.30;;;2.93;;
21665;SDS011;10994;45.486;9.190;2023-04-24T04:35:56;3.67;;;3.23;;
21665;SDS011;10994;45.486;9.190;2023-04-24T04:38:26;3.80;;;2.60;;
21665;SDS011;10994;45.486;9.190;2023-04-24T04:41:12;4.30;;;3.13;;
21665;SDS011;10994;45.486;9.190;2023-04-24T04:43:39;4.20;;;2.73;;
21665;SDS011;10994;45.486;9.190;2023-04-24T04:46:06;3.00;;;2.70;;
21665;SDS011;10994;45.486;9.190;2023-04-24T04:48:42;3.87;;;3.30;;
21665;SDS011;10994;45.486;9.190;2023-04-24T04:51:08;4.50;;;3.10;;
21665;SDS011;10994;45.486;9.190;2023-04-24T04:53:35;4.00;;;3.60;;
21665;SDS011;10994;45.486;9.190;2023-04-24T04:56:01;6.13;;;3.23;;
21665;SDS011;10994;45.486;9.190;2023-04-24T04:58:41;4.00;;;3.60;;
21665;SDS011;10994;45.486;9.190;2023-04-24T05:01:10;3.40;;;3.10;;
21665;SDS011;10994;45.486;9.190;2023-04-24T05:03:40;3.03;;;2.73;;
21665;SDS011;10994;45.486;9.190;2023-04-24T05:06:08;3.37;;;3.00;;
21665;SDS011;10994;45.486;9.190;2023-04-24T05:08:37;3.07;;;2.70;;
21665;SDS011;10994;45.486;9.190;2023-04-24T05:11:05;3.43;;;2.93;;
21665;SDS011;10994;45.486;9.190;2023-04-24T05:13:31;2.97;;;2.77;;
21665;SDS011;10994;45.486;9.190;2023-04-24T05:15:58;2.63;;;2.43;;
21665;SDS011;10994;45.486;9.190;2023-04-24T05:18:24;3.43;;;2.63;;
21665;SDS011;10994;45.486;9.190;2023-04-24T05:20:49;2.60;;;2.37;;
21665;SDS011;10994;45.486;9.190;2023-04-24T05:23:15;2.43;;;2.20;;
21665;SDS011;10994;45.486;9.190;2023-04-24T05:25:43;2.50;;;2.30;;
21665;SDS011;10994;45.486;9.190;2023-04-24T05:28:11;3.67;;;2.40;;
21665;SDS011;10994;45.486;9.190;2023-04-24T05:30:37;3.13;;;2.20;;
21665;SDS011;10994;45.486;9.190;2023-04-24T05:33:03;3.37;;;2.23;;
21665;SDS011;10994;45.486;9.190;2023-04-24T05:35:33;2.53;;;2.00;;
21665;SDS011;10994;45.486;9.190;2023-04-24T05:37:59;2.77;;;2.10;;
21665;SDS011;10994;45.486;9.190;2023-04-24T05:40:25;2.40;;;1.83;;
21665;SDS011;10994;45.486;9.190;2023-04-24T05:42:51;2.60;;;2.20;;
21665;SDS011;10994;45.486;9.190;2023-04-24T05:45:16;3.00;;;2.53;;
21665;SDS011;10994;45.486;9.190;2023-04-24T05:47:43;3.77;;;2.90;;
21665;SDS011;10994;45.486;9.190;2023-04-24T05:50:10;3.30;;;3.00;;
21665;SDS011;10994;45.486;9.190;2023-04-24T05:52:36;4.10;;;2.80;;
21665;SDS011;10994;45.486;9.190;2023-04-24T05:55:10;3.83;;;3.10;;
21665;SDS011;10994;45.486;9.190;2023-04-24T05:57:40;3.30;;;3.00;;
21665;SDS011;10994;45.486;9.190;2023-04-24T06:00:05;2.83;;;2.60;;
21665;SDS011;10994;45.486;9.190;2023-04-24T06:02:49;4.10;;;2.83;;
21665;SDS011;10994;45.486;9.190;2023-04-24T06:05:15;2.40;;;2.20;;
21665;SDS011;10994;45.486;9.190;2023-04-24T06:07:40;3.00;;;2.50;;
21665;SDS011;10994;45.486;9.190;2023-04-24T06:10:07;3.17;;;2.50;;
21665;SDS011;10994;45.486;9.190;2023-04-24T06:12:39;3.23;;;2.93;;
21665;SDS011;10994;45.486;9.190;2023-04-24T06:15:10;3.80;;;2.50;;
21665;SDS011;10994;45.486;9.190;2023-04-24T06:17:49;4.53;;;3.37;;
21665;SDS011;10994;45.486;9.190;2023-04-24T06:20:16;3.00;;;2.43;;
21665;SDS011;10994;45.486;9.190;2023-04-24T06:22:41;3.27;;;2.50;;
21665;SDS011;10994;45.486;9.190;2023-04-24T06:25:09;3.23;;;2.67;;
21665;SDS011;10994;45.486;9.190;2023-04-24T06:27:35;2.73;;;2.50;;
21665;SDS011;10994;45.486;9.190;2023-04-24T06:30:00;5.03;;;2.90;;
21665;SDS011;10994;45.486;9.190;2023-04-24T06:32:26;5.30;;;3.57;;
21665;SDS011;10994;45.486;9.190;2023-04-24T06:34:52;3.80;;;2.60;;
21665;SDS011;10994;45.486;9.190;2023-04-24T06:37:18;7.43;;;2.60;;
21665;SDS011;10994;45.486;9.190;2023-04-24T06:39:47;2.43;;;2.23;;
21665;SDS011;10994;45.486;9.190;2023-04-24T06:42:13;2.20;;;2.00;;
21665;SDS011;10994;45.486;9.190;2023-04-24T06:44:42;2.50;;;2.30;;
21665;SDS011;10994;45.486;9.190;2023-04-24T06:47:08;3.23;;;2.30;;
21665;SDS011;10994;45.486;9.190;2023-04-24T06:49:38;2.90;;;2.63;;
21665;SDS011;10994;45.486;9.190;2023-04-24T06:52:05;2.97;;;2.53;;
21665;SDS011;10994;45.486;9.190;2023-04-24T06:54:31;2.63;;;2.43;;
21665;SDS011;10994;45.486;9.190;2023-04-24T06:56:57;3.73;;;3.30;;
21665;SDS011;10994;45.486;9.190;2023-04-24T06:59:24;2.70;;;2.50;;
21665;SDS011;10994;45.486;9.190;2023-04-24T07:01:50;4.50;;;3.30;;
21665;SDS011;10994;45.486;9.190;2023-04-24T07:04:18;4.13;;;2.60;;
21665;SDS011;10994;45.486;9.190;2023-04-24T07:06:47;4.50;;;2.90;;
21665;SDS011;10994;45.486;9.190;2023-04-24T07:09:17;5.47;;;4.30;;
21665;SDS011;10994;45.486;9.190;2023-04-24T07:11:44;4.57;;;3.00;;
21665;SDS011;10994;45.486;9.190;2023-04-24T07:14:10;3.43;;;2.90;;
21665;SDS011;10994;45.486;9.190;2023-04-24T07:16:36;3.53;;;3.00;;
21665;SDS011;10994;45.486;9.190;2023-04-24T07:19:01;4.97;;;3.10;;
21665;SDS011;10994;45.486;9.190;2023-04-24T07:21:27;3.47;;;3.17;;
21665;SDS011;10994;45.486;9.190;2023-04-24T07:23:53;4.03;;;2.93;;
21665;SDS011;10994;45.486;9.190;2023-04-24T07:26:19;4.07;;;3.00;;
21665;SDS011;10994;45.486;9.190;2023-04-24T07:28:45;4.50;;;2.97;;
21665;SDS011;10994;45.486;9.190;2023-04-24T07:31:14;3.77;;;2.80;;
21665;SDS011;10994;45.486;9.190;2023-04-24T07:33:40;3.53;;;3.00;;
21665;SDS011;10994;45.486;9.190;2023-04-24T07:36:05;6.70;;;3.30;;
21665;SDS011;10994;45.486;9.190;2023-04-24T07:38:31;3.77;;;2.77;;
21665;SDS011;10994;45.486;9.190;2023-04-24T07:40:57;3.73;;;3.33;;
21665;SDS011;10994;45.486;9.190;2023-04-24T07:43:23;4.90;;;2.80;;
21665;SDS011;10994;45.486;9.190;2023-04-24T07:45:51;3.53;;;3.17;;
21665;SDS011;10994;45.486;9.190;2023-04-24T07:48:17;3.93;;;3.10;;
21665;SDS011;10994;45.486;9.190;2023-04-24T07:50:46;2.90;;;2.60;;
21665;SDS011;10994;45.486;9.190;2023-04-24T07:53:12;5.97;;;3.40;;
21665;SDS011;10994;45.486;9.190;2023-04-24T07:55:37;4.50;;;2.90;;
21665;SDS011;10994;45.486;9.190;2023-04-24T07:58:03;2.87;;;2.40;;
21665;SDS011;10994;45.486;9.190;2023-04-24T08:00:29;2.30;;;2.10;;
21665;SDS011;10994;45.486;9.190;2023-04-24T08:02:54;2.43;;;2.23;;
21665;SDS011;10994;45.486;9.190;2023-04-24T08:05:20;3.00;;;2.40;;
21665;SDS011;10994;45.486;9.190;2023-04-24T08:07:46;2.43;;;2.23;;
21665;SDS011;10994;45.486;9.190;2023-04-24T08:10:13;3.43;;;2.20;;
21665;SDS011;10994;45.486;9.190;2023-04-24T08:12:40;1.93;;;1.77;;
21665;SDS011;10994;45.486;9.190;2023-04-24T08:15:06;2.60;;;2.27;;
21665;SDS011;10994;45.486;9.190;2023-04-24T08:17:33;3.17;;;1.87;;
21665;SDS011;10994;45.486;9.190;2023-04-24T08:20:00;5.73;;;2.50;;
21665;SDS011;10994;45.486;9.190;2023-04-24T08:22:29;1.67;;;1.40;;
21665;SDS011;10994;45.486;9.190;2023-04-24T08:24:55;2.23;;;1.87;;
21665;SDS011;10994;45.486;9.190;2023-04-24T08:27:22;1.80;;;1.70;;
21665;SDS011;10994;45.486;9.190;2023-04-24T08:29:48;2.37;;;1.77;;
21665;SDS011;10994;45.486;9.190;2023-04-24T08:32:15;3.33;;;1.67;;
21665;SDS011;10994;45.486;9.190;2023-04-24T08:34:40;4.47;;;1.80;;
21665;SDS011;10994;45.486;9.190;2023-04-24T08:37:06;1.30;;;1.20;;
21665;SDS011;10994;45.486;9.190;2023-04-24T08:39:32;2.53;;;1.47;;
21665;SDS011;10994;45.486;9.190;2023-04-24T08:41:57;1.50;;;1.40;;
21665;SDS011;10994;45.486;9.190;2023-04-24T08:44:30;1.20;;;1.10;;
21665;SDS011;10994;45.486;9.190;2023-04-24T08:46:57;1.33;;;1.23;;
21665;SDS011;10994;45.486;9.190;2023-04-24T08:49:23;1.97;;;1.63;;
21665;SDS011;10994;45.486;9.190;2023-04-24T08:51:50;2.10;;;1.60;;
21665;SDS011;10994;45.486;9.190;2023-04-24T08:54:17;3.03;;;1.97;;
21665;SDS011;10994;45.486;9.190;2023-04-24T08:56:43;2.00;;;1.73;;
21665;SDS011;10994;45.486;9.190;2023-04-24T08:59:11;3.20;;;1.70;;
21665;SDS011;10994;45.486;9.190;2023-04-24T09:01:38;1.50;;;1.40;;
21665;SDS011;10994;45.486;9.190;2023-04-24T09:04:05;1.30;;;1.20;;
21665;SDS011;10994;45.486;9.190;2023-04-24T09:06:33;2.13;;;1.17;;
21665;SDS011;10994;45.486;9.190;2023-04-24T09:09:00;2.10;;;1.20;;
21665;SDS011;10994;45.486;9.190;2023-04-24T09:11:27;2.20;;;1.50;;
21665;SDS011;10994;45.486;9.190;2023-04-24T09:13:55;1.33;;;1.00;;
21665;SDS011;10994;45.486;9.190;2023-04-24T09:16:21;2.80;;;1.93;;
21665;SDS011;10994;45.486;9.190;2023-04-24T09:18:49;3.10;;;1.40;;
21665;SDS011;10994;45.486;9.190;2023-04-24T09:21:15;2.63;;;1.33;;
21665;SDS011;10994;45.486;9.190;2023-04-24T09:23:41;1.27;;;1.10;;
21665;SDS011;10994;45.486;9.190;2023-04-24T09:26:07;2.87;;;1.50;;
21665;SDS011;10994;45.486;9.190;2023-04-24T09:28:35;2.53;;;1.33;;
21665;SDS011;10994;45.486;9.190;2023-04-24T09:31:03;1.30;;;1.07;;
21665;SDS011;10994;45.486;9.190;2023-04-24T09:33:29;1.60;;;1.30;;
21665;SDS011;10994;45.486;9.190;2023-04-24T09:35:55;1.60;;;1.43;;
21665;SDS011;10994;45.486;9.190;2023-04-24T09:38:30;1.73;;;1.30;;
21665;SDS011;10994;45.486;9.190;2023-04-24T09:41:01;4.07;;;1.60;;
21665;SDS011;10994;45.486;9.190;2023-04-24T09:43:29;3.43;;;1.50;;
21665;SDS011;10994;45.486;9.190;2023-04-24T09:45:55;4.47;;;1.50;;
21665;SDS011;10994;45.486;9.190;2023-04-24T09:48:37;2.23;;;1.50;;
21665;SDS011;10994;45.486;9.190;2023-04-24T09:51:04;2.93;;;1.40;;
21665;SDS011;10994;45.486;9.190;2023-04-24T09:53:36;2.87;;;1.37;;
21665;SDS011;10994;45.486;9.190;2023-04-24T09:56:09;1.47;;;1.30;;
21665;SDS011;10994;45.486;9.190;2023-04-24T09:58:35;5.43;;;1.50;;
21665;SDS011;10994;45.486;9.190;2023-04-24T10:01:02;1.73;;;1.53;;
21665;SDS011;10994;45.486;9.190;2023-04-24T10:03:31;1.43;;;1.10;;
21665;SDS011;10994;45.486;9.190;2023-04-24T10:06:01;1.80;;;1.30;;
21665;SDS011;10994;45.486;9.190;2023-04-24T10:08:34;1.50;;;1.40;;
21665;SDS011;10994;45.486;9.190;2023-04-24T10:11:00;2.00;;;1.80;;
21665;SDS011;10994;45.486;9.190;2023-04-24T10:13:26;1.87;;;1.60;;
21665;SDS011;10994;45.486;9.190;2023-04-24T10:15:53;4.53;;;2.80;;
21665;SDS011;10994;45.486;9.190;2023-04-24T10:18:21;2.10;;;1.90;;
21665;SDS011;10994;45.486;9.190;2023-04-24T10:20:47;1.50;;;1.40;;
21665;SDS011;10994;45.486;9.190;2023-04-24T10:23:13;1.20;;;1.03;;
21665;SDS011;10994;45.486;9.190;2023-04-24T10:25:39;2.03;;;1.83;;
21665;SDS011;10994;45.486;9.190;2023-04-24T10:28:06;2.00;;;1.20;;
21665;SDS011;10994;45.486;9.190;2023-04-24T10:30:32;1.30;;;1.20;;
21665;SDS011;10994;45.486;9.190;2023-04-24T10:33:00;1.50;;;1.40;;
21665;SDS011;10994;45.486;9.190;2023-04-24T10:35:27;1.20;;;1.10;;
21665;SDS011;10994;45.486;9.190;2023-04-24T10:37:57;1.73;;;1.20;;
21665;SDS011;10994;45.486;9.190;2023-04-24T10:40:27;1.10;;;1.00;;
21665;SDS011;10994;45.486;9.190;2023-04-24T10:42:56;1.33;;;1.23;;
21665;SDS011;10994;45.486;9.190;2023-04-24T10:45:23;1.17;;;1.07;;
21665;SDS011;10994;45.486;9.190;2023-04-24T10:47:58;1.40;;;1.00;;
21665;SDS011;10994;45.486;9.190;2023-04-24T10:50:27;2.50;;;0.90;;
21665;SDS011;10994;45.486;9.190;2023-04-24T10:53:04;1.00;;;0.80;;
21665;SDS011;10994;45.486;9.190;2023-04-24T10:55:50;0.97;;;0.93;;
21665;SDS011;10994;45.486;9.190;2023-04-24T10:58:21;3.40;;;1.10;;
21665;SDS011;10994;45.486;9.190;2023-04-24T11:00:57;1.37;;;0.90;;
21665;SDS011;10994;45.486;9.190;2023-04-24T11:03:25;0.87;;;0.87;;
21665;SDS011;10994;45.486;9.190;2023-04-24T11:05:59;0.87;;;0.87;;
21665;SDS011;10994;45.486;9.190;2023-04-24T11:08:26;1.17;;;1.07;;
21665;SDS011;10994;45.486;9.190;2023-04-24T11:10:56;1.37;;;1.03;;
21665;SDS011;10994;45.486;9.190;2023-04-24T11:13:24;1.17;;;0.90;;
21665;SDS011;10994;45.486;9.190;2023-04-24T11:18:38;0.77;;;0.77;;
21665;SDS011;10994;45.486;9.190;2023-04-24T11:21:12;1.27;;;1.10;;
21665;SDS011;10994;45.486;9.190;2023-04-24T11:23:39;0.80;;;0.73;;
21665;SDS011;10994;45.486;9.190;2023-04-24T11:26:09;1.10;;;0.80;;
21665;SDS011;10994;45.486;9.190;2023-04-24T11:28:35;0.43;;;0.43;;
21665;SDS011;10994;45.486;9.190;2023-04-24T11:31:44;4.63;;;0.60;;
21665;SDS011;10994;45.486;9.190;2023-04-24T11:33:51;1.00;;;0.70;;
21665;SDS011;10994;45.486;9.190;2023-04-24T11:36:19;0.83;;;0.60;;
21665;SDS011;10994;45.486;9.190;2023-04-24T11:38:44;0.93;;;0.70;;
21665;SDS011;10994;45.486;9.190;2023-04-24T11:41:11;1.03;;;0.90;;
21665;SDS011;10994;45.486;9.190;2023-04-24T11:43:38;2.93;;;0.70;;
21665;SDS011;10994;45.486;9.190;2023-04-24T11:46:04;1.40;;;0.77;;
21665;SDS011;10994;45.486;9.190;2023-04-24T11:48:33;0.80;;;0.60;;
21665;SDS011;10994;45.486;9.190;2023-04-24T11:51:01;0.50;;;0.50;;
21665;SDS011;10994;45.486;9.190;2023-04-24T11:53:27;0.73;;;0.50;;
21665;SDS011;10994;45.486;9.190;2023-04-24T11:55:53;2.03;;;0.70;;
21665;SDS011;10994;45.486;9.190;2023-04-24T11:58:20;0.70;;;0.33;;
21665;SDS011;10994;45.486;9.190;2023-04-24T12:00:55;1.27;;;0.80;;
21665;SDS011;10994;45.486;9.190;2023-04-24T12:03:22;0.77;;;0.77;;
21665;SDS011;10994;45.486;9.190;2023-04-24T12:05:47;0.70;;;0.70;;
21665;SDS011;10994;45.486;9.190;2023-04-24T12:08:26;0.97;;;0.70;;
21665;SDS011;10994;45.486;9.190;2023-04-24T12:10:53;1.53;;;0.63;;
21665;SDS011;10994;45.486;9.190;2023-04-24T12:13:19;0.37;;;0.37;;
21665;SDS011;10994;45.486;9.190;2023-04-24T12:15:45;0.97;;;0.40;;
21665;SDS011;10994;45.486;9.190;2023-04-24T12:18:13;0.50;;;0.30;;
21665;SDS011;10994;45.486;9.190;2023-04-24T12:20:40;0.50;;;0.40;;
21665;SDS011;10994;45.486;9.190;2023-04-24T12:23:06;0.65;;;0.65;;
21665;SDS011;10994;45.486;9.190;2023-04-24T12:25:32;0.40;;;0.40;;
21665;SDS011;10994;45.486;9.190;2023-04-24T12:30:38;0.43;;;0.40;;
21665;SDS011;10994;45.486;9.190;2023-04-24T12:33:05;0.90;;;0.60;;
21665;SDS011;10994;45.486;9.190;2023-04-24T12:35:31;1.33;;;0.68;;
21665;SDS011;10994;45.486;9.190;2023-04-24T12:38:11;0.73;;;0.50;;
21665;SDS011;10994;45.486;9.190;2023-04-24T12:40:38;1.25;;;0.57;;
21665;SDS011;10994;45.486;9.190;2023-04-24T12:43:14;0.70;;;0.60;;
21665;SDS011;10994;45.486;9.190;2023-04-24T12:45:40;0.50;;;0.50;;
21665;SDS011;10994;45.486;9.190;2023-04-24T12:48:06;1.23;;;1.00;;
21665;SDS011;10994;45.486;9.190;2023-04-24T12:50:32;0.47;;;0.47;;
21665;SDS011;10994;45.486;9.190;2023-04-24T12:52:59;0.73;;;0.40;;
21665;SDS011;10994;45.486;9.190;2023-04-24T12:55:25;1.02;;;0.60;;
21665;SDS011;10994;45.486;9.190;2023-04-24T12:57:50;0.93;;;0.45;;
21665;SDS011;10994;45.486;9.190;2023-04-24T13:00:17;0.50;;;0.50;;
21665;SDS011;10994;45.486;9.190;2023-04-24T13:02:42;0.30;;;0.30;;
21665;SDS011;10994;45.486;9.190;2023-04-24T13:05:08;0.60;;;0.30;;
21665;SDS011;10994;45.486;9.190;2023-04-24T13:07:34;1.38;;;0.40;;
21665;SDS011;10994;45.486;9.190;2023-04-24T13:09:59;1.60;;;0.50;;
21665;SDS011;10994;45.486;9.190;2023-04-24T13:12:25;0.28;;;0.28;;
21665;SDS011;10994;45.486;9.190;2023-04-24T13:14:51;0.68;;;0.50;;
21665;SDS011;10994;45.486;9.190;2023-04-24T13:17:17;0.50;;;0.50;;
21665;SDS011;10994;45.486;9.190;2023-04-24T13:19:43;0.90;;;0.50;;
21665;SDS011;10994;45.486;9.190;2023-04-24T13:22:10;0.80;;;0.30;;
21665;SDS011;10994;45.486;9.190;2023-04-24T13:24:37;0.63;;;0.20;;
21665;SDS011;10994;45.486;9.190;2023-04-24T13:27:04;0.22;;;0.20;;
21665;SDS011;10994;45.486;9.190;2023-04-24T13:29:30;0.22;;;0.22;;
21665;SDS011;10994;45.486;9.190;2023-04-24T13:31:56;0.35;;;0.22;;
21665;SDS011;10994;45.486;9.190;2023-04-24T13:34:25;0.75;;;0.30;;
21665;SDS011;10994;45.486;9.190;2023-04-24T13:36:52;0.20;;;0.20;;
21665;SDS011;10994;45.486;9.190;2023-04-24T13:39:19;0.30;;;0.30;;
21665;SDS011;10994;45.486;9.190;2023-04-24T13:41:45;0.57;;;0.30;;
21665;SDS011;10994;45.486;9.190;2023-04-24T13:44:13;1.92;;;1.77;;
21665;SDS011;10994;45.486;9.190;2023-04-24T13:46:43;0.22;;;0.22;;
21665;SDS011;10994;45.486;9.190;2023-04-24T13:49:10;0.25;;;0.20;;
21665;SDS011;10994;45.486;9.190;2023-04-24T13:51:36;0.40;;;0.20;;
21665;SDS011;10994;45.486;9.190;2023-04-24T13:54:02;0.65;;;0.08;;
21665;SDS011;10994;45.486;9.190;2023-04-24T13:56:28;0.50;;;0.25;;
21665;SDS011;10994;45.486;9.190;2023-04-24T13:58:54;2.88;;;1.58;;
21665;SDS011;10994;45.486;9.190;2023-04-24T14:01:19;9.27;;;0.40;;
21665;SDS011;10994;45.486;9.190;2023-04-24T14:03:49;3.10;;;0.20;;
21665;SDS011;10994;45.486;9.190;2023-04-24T14:06:15;0.52;;;0.25;;
21665;SDS011;10994;45.486;9.190;2023-04-24T14:08:40;0.93;;;0.20;;
21665;SDS011;10994;45.486;9.190;2023-04-24T14:11:06;0.55;;;0.40;;
21665;SDS011;10994;45.486;9.190;2023-04-24T14:13:32;0.50;;;0.30;;
21665;SDS011;10994;45.486;9.190;2023-04-24T14:15:58;0.30;;;0.30;;
21665;SDS011;10994;45.486;9.190;2023-04-24T14:18:23;1.17;;;0.45;;
21665;SDS011;10994;45.486;9.190;2023-04-24T14:20:49;0.20;;;0.20;;
21665;SDS011;10994;45.486;9.190;2023-04-24T14:23:15;0.10;;;0.10;;
21665;SDS011;10994;45.486;9.190;2023-04-24T14:25:40;0.13;;;0.10;;
21665;SDS011;10994;45.486;9.190;2023-04-24T14:28:07;0.28;;;0.20;;
21665;SDS011;10994;45.486;9.190;2023-04-24T14:30:32;0.20;;;0.10;;
21665;SDS011;10994;45.486;9.190;2023-04-24T14:33:02;0.10;;;0.10;;
21665;SDS011;10994;45.486;9.190;2023-04-24T14:35:28;1.58;;;0.90;;
21665;SDS011;10994;45.486;9.190;2023-04-24T14:37:56;0.17;;;0.17;;
21665;SDS011;10994;45.486;9.190;2023-04-24T14:40:22;0.10;;;0.10;;
21665;SDS011;10994;45.486;9.190;2023-04-24T14:42:47;0.10;;;0.10;;
21665;SDS011;10994;45.486;9.190;2023-04-24T14:45:13;0.45;;;0.20;;
21665;SDS011;10994;45.486;9.190;2023-04-24T14:47:39;2.03;;;0.20;;
21665;SDS011;10994;45.486;9.190;2023-04-24T14:50:07;0.43;;;0.17;;
21665;SDS011;10994;45.486;9.190;2023-04-24T14:52:33;0.10;;;0.10;;
21665;SDS011;10994;45.486;9.190;2023-04-24T14:54:59;0.30;;;0.30;;